sensor_id;sensor_type;location;lat;lon;timestamp;P1;durP1;ratioP1;P2;durP2;ratioP2
49566;SDS011;35472;50.514;30.448;2023-12-29T00:00:16;10.18;;;6.85;;
49566;SDS011;35472;50.514;30.448;2023-12-29T00:02:41;9.80;;;6.30;;
49566;SDS011;35472;50.514;30.448;2023-12-29T00:05:07;10.27;;;6.57;;
49566;SDS011;35472;50.514;30.448;2023-12-29T00:07:32;9.00;;;5.57;;
49566;SDS011;35472;50.514;30.448;2023-12-29T00:09:58;7.80;;;5.93;;
49566;SDS011;35472;50.514;30.448;2023-12-29T00:12:23;14.60;;;7.75;;
49566;SDS011;35472;50.514;30.448;2023-12-29T00:14:49;13.82;;;8.23;;
49566;SDS011;35472;50.514;30.448;2023-12-29T00:17:14;7.38;;;5.50;;
49566;SDS011;35472;50.514;30.448;2023-12-29T00:19:39;11.27;;;8.02;;
49566;SDS011;35472;50.514;30.448;2023-12-29T00:22:05;11.10;;;7.18;;
49566;SDS011;35472;50.514;30.448;2023-12-29T00:24:30;12.27;;;7.65;;
49566;SDS011;35472;50.514;30.448;2023-12-29T00:26:59;9.48;;;6.45;;
49566;SDS011;35472;50.514;30.448;2023-12-29T00:29:25;10.95;;;6.88;;
49566;SDS011;35472;50.514;30.448;2023-12-29T00:31:57;10.43;;;7.20;;
49566;SDS011;35472;50.514;30.448;2023-12-29T00:34:22;9.65;;;6.25;;
49566;SDS011;35472;50.514;30.448;2023-12-29T00:36:48;11.40;;;6.82;;
49566;SDS011;35472;50.514;30.448;2023-12-29T00:39:13;10.57;;;6.55;;
49566;SDS011;35472;50.514;30.448;2023-12-29T00:41:39;8.32;;;6.18;;
49566;SDS011;35472;50.514;30.448;2023-12-29T00:44:06;11.23;;;6.90;;
49566;SDS011;35472;50.514;30.448;2023-12-29T00:46:32;10.07;;;6.28;;
49566;SDS011;35472;50.514;30.448;2023-12-29T00:48:57;8.70;;;6.65;;
49566;SDS011;35472;50.514;30.448;2023-12-29T00:51:23;10.23;;;6.72;;
49566;SDS011;35472;50.514;30.448;2023-12-29T00:53:48;10.60;;;6.18;;
49566;SDS011;35472;50.514;30.448;2023-12-29T00:56:13;9.10;;;5.93;;
49566;SDS011;35472;50.514;30.448;2023-12-29T00:58:39;10.13;;;6.72;;
49566;SDS011;35472;50.514;30.448;2023-12-29T01:01:07;12.10;;;6.97;;
49566;SDS011;35472;50.514;30.448;2023-12-29T01:03:34;9.18;;;6.68;;
49566;SDS011;35472;50.514;30.448;2023-12-29T01:06:01;9.32;;;7.72;;
49566;SDS011;35472;50.514;30.448;2023-12-29T01:08:27;9.93;;;6.60;;
49566;SDS011;35472;50.514;30.448;2023-12-29T01:10:53;11.45;;;7.32;;
49566;SDS011;35472;50.514;30.448;2023-12-29T01:13:18;10.00;;;7.45;;
49566;SDS011;35472;50.514;30.448;2023-12-29T01:15:44;9.10;;;6.50;;
49566;SDS011;35472;50.514;30.448;2023-12-29T01:18:11;11.07;;;7.00;;
49566;SDS011;35472;50.514;30.448;2023-12-29T01:20:37;10.27;;;7.20;;
49566;SDS011;35472;50.514;30.448;2023-12-29T01:23:05;8.88;;;6.57;;
49566;SDS011;35472;50.514;30.448;2023-12-29T01:25:32;10.40;;;7.68;;
49566;SDS011;35472;50.514;30.448;2023-12-29T01:27:57;12.18;;;7.60;;
49566;SDS011;35472;50.514;30.448;2023-12-29T01:30:23;15.20;;;8.10;;
49566;SDS011;35472;50.514;30.448;2023-12-29T01:32:48;12.32;;;7.82;;
49566;SDS011;35472;50.514;30.448;2023-12-29T01:35:14;11.15;;;6.80;;
49566;SDS011;35472;50.514;30.448;2023-12-29T01:37:39;9.07;;;7.55;;
49566;SDS011;35472;50.514;30.448;2023-12-29T01:40:04;13.30;;;8.50;;
49566;SDS011;35472;50.514;30.448;2023-12-29T01:42:30;10.73;;;7.05;;
49566;SDS011;35472;50.514;30.448;2023-12-29T01:44:56;13.93;;;7.57;;
49566;SDS011;35472;50.514;30.448;2023-12-29T01:47:21;14.20;;;7.80;;
49566;SDS011;35472;50.514;30.448;2023-12-29T01:49:47;10.70;;;7.00;;
49566;SDS011;35472;50.514;30.448;2023-12-29T01:52:16;13.23;;;8.35;;
49566;SDS011;35472;50.514;30.448;2023-12-29T01:54:44;13.55;;;8.13;;
49566;SDS011;35472;50.514;30.448;2023-12-29T01:57:12;10.77;;;7.38;;
49566;SDS011;35472;50.514;30.448;2023-12-29T01:59:39;11.35;;;7.22;;
49566;SDS011;35472;50.514;30.448;2023-12-29T02:02:05;10.30;;;7.53;;
49566;SDS011;35472;50.514;30.448;2023-12-29T02:04:31;8.82;;;7.05;;
49566;SDS011;35472;50.514;30.448;2023-12-29T02:06:57;13.77;;;7.95;;
49566;SDS011;35472;50.514;30.448;2023-12-29T02:09:24;11.55;;;7.88;;
49566;SDS011;35472;50.514;30.448;2023-12-29T02:11:50;12.10;;;7.82;;
49566;SDS011;35472;50.514;30.448;2023-12-29T02:14:16;9.85;;;6.32;;
49566;SDS011;35472;50.514;30.448;2023-12-29T02:22:09;12.25;;;8.07;;
49566;SDS011;35472;50.514;30.448;2023-12-29T02:24:35;10.68;;;7.18;;
49566;SDS011;35472;50.514;30.448;2023-12-29T02:27:07;9.90;;;7.03;;
49566;SDS011;35472;50.514;30.448;2023-12-29T02:29:37;13.25;;;7.97;;
49566;SDS011;35472;50.514;30.448;2023-12-29T02:32:05;11.77;;;7.95;;
49566;SDS011;35472;50.514;30.448;2023-12-29T02:34:34;12.90;;;7.95;;
49566;SDS011;35472;50.514;30.448;2023-12-29T02:37:01;12.07;;;7.82;;
49566;SDS011;35472;50.514;30.448;2023-12-29T02:39:27;14.60;;;7.85;;
49566;SDS011;35472;50.514;30.448;2023-12-29T02:41:53;14.15;;;8.57;;
49566;SDS011;35472;50.514;30.448;2023-12-29T02:44:19;10.48;;;7.35;;
49566;SDS011;35472;50.514;30.448;2023-12-29T02:46:45;12.60;;;7.18;;
49566;SDS011;35472;50.514;30.448;2023-12-29T02:49:10;13.65;;;7.95;;
49566;SDS011;35472;50.514;30.448;2023-12-29T02:51:38;10.43;;;7.25;;
49566;SDS011;35472;50.514;30.448;2023-12-29T02:54:04;12.23;;;8.60;;
49566;SDS011;35472;50.514;30.448;2023-12-29T02:56:31;11.82;;;7.65;;
49566;SDS011;35472;50.514;30.448;2023-12-29T02:58:56;10.93;;;7.90;;
49566;SDS011;35472;50.514;30.448;2023-12-29T03:01:22;13.70;;;8.50;;
49566;SDS011;35472;50.514;30.448;2023-12-29T03:03:47;13.80;;;7.53;;
49566;SDS011;35472;50.514;30.448;2023-12-29T03:06:13;12.45;;;8.52;;
49566;SDS011;35472;50.514;30.448;2023-12-29T03:08:39;11.48;;;7.18;;
49566;SDS011;35472;50.514;30.448;2023-12-29T03:11:05;12.00;;;8.25;;
49566;SDS011;35472;50.514;30.448;2023-12-29T03:13:31;12.60;;;9.18;;
49566;SDS011;35472;50.514;30.448;2023-12-29T03:15:56;15.10;;;8.25;;
49566;SDS011;35472;50.514;30.448;2023-12-29T03:18:22;12.52;;;8.95;;
49566;SDS011;35472;50.514;30.448;2023-12-29T03:20:47;12.63;;;8.25;;
49566;SDS011;35472;50.514;30.448;2023-12-29T03:23:13;11.07;;;8.02;;
49566;SDS011;35472;50.514;30.448;2023-12-29T03:25:38;13.40;;;8.73;;
49566;SDS011;35472;50.514;30.448;2023-12-29T03:28:04;13.55;;;8.50;;
49566;SDS011;35472;50.514;30.448;2023-12-29T03:30:29;12.23;;;8.38;;
49566;SDS011;35472;50.514;30.448;2023-12-29T03:32:55;10.07;;;7.25;;
49566;SDS011;35472;50.514;30.448;2023-12-29T03:35:20;9.93;;;8.15;;
49566;SDS011;35472;50.514;30.448;2023-12-29T03:37:46;8.52;;;6.65;;
49566;SDS011;35472;50.514;30.448;2023-12-29T03:40:13;10.57;;;7.13;;
49566;SDS011;35472;50.514;30.448;2023-12-29T03:42:39;11.88;;;7.80;;
49566;SDS011;35472;50.514;30.448;2023-12-29T03:45:06;9.18;;;7.25;;
49566;SDS011;35472;50.514;30.448;2023-12-29T03:47:32;13.93;;;8.35;;
49566;SDS011;35472;50.514;30.448;2023-12-29T03:49:58;10.65;;;7.72;;
49566;SDS011;35472;50.514;30.448;2023-12-29T03:52:23;13.88;;;7.15;;
49566;SDS011;35472;50.514;30.448;2023-12-29T03:54:49;11.20;;;7.05;;
49566;SDS011;35472;50.514;30.448;2023-12-29T03:57:14;11.20;;;6.95;;
49566;SDS011;35472;50.514;30.448;2023-12-29T03:59:40;12.60;;;6.97;;
49566;SDS011;35472;50.514;30.448;2023-12-29T04:02:06;10.98;;;7.28;;
49566;SDS011;35472;50.514;30.448;2023-12-29T04:04:31;11.02;;;7.65;;
49566;SDS011;35472;50.514;30.448;2023-12-29T04:06:57;11.32;;;7.43;;
49566;SDS011;35472;50.514;30.448;2023-12-29T04:09:22;16.00;;;7.28;;
49566;SDS011;35472;50.514;30.448;2023-12-29T04:11:48;10.18;;;6.20;;
49566;SDS011;35472;50.514;30.448;2023-12-29T04:14:13;10.32;;;7.40;;
49566;SDS011;35472;50.514;30.448;2023-12-29T04:16:38;11.65;;;7.70;;
49566;SDS011;35472;50.514;30.448;2023-12-29T04:19:04;10.05;;;7.35;;
49566;SDS011;35472;50.514;30.448;2023-12-29T04:21:30;10.00;;;7.22;;
49566;SDS011;35472;50.514;30.448;2023-12-29T04:23:56;9.32;;;7.60;;
49566;SDS011;35472;50.514;30.448;2023-12-29T04:26:22;9.40;;;6.88;;
49566;SDS011;35472;50.514;30.448;2023-12-29T04:28:48;8.52;;;6.28;;
49566;SDS011;35472;50.514;30.448;2023-12-29T04:31:13;11.82;;;7.40;;
49566;SDS011;35472;50.514;30.448;2023-12-29T04:33:39;8.30;;;6.43;;
49566;SDS011;35472;50.514;30.448;2023-12-29T04:36:04;9.45;;;7.32;;
49566;SDS011;35472;50.514;30.448;2023-12-29T04:38:30;12.07;;;7.05;;
49566;SDS011;35472;50.514;30.448;2023-12-29T04:40:56;11.43;;;7.32;;
49566;SDS011;35472;50.514;30.448;2023-12-29T04:43:21;11.02;;;7.90;;
49566;SDS011;35472;50.514;30.448;2023-12-29T04:45:46;16.02;;;8.77;;
49566;SDS011;35472;50.514;30.448;2023-12-29T04:48:12;13.60;;;8.75;;
49566;SDS011;35472;50.514;30.448;2023-12-29T04:50:37;15.52;;;8.57;;
49566;SDS011;35472;50.514;30.448;2023-12-29T04:53:03;12.25;;;8.68;;
49566;SDS011;35472;50.514;30.448;2023-12-29T04:55:29;11.93;;;7.47;;
49566;SDS011;35472;50.514;30.448;2023-12-29T04:57:54;13.55;;;8.43;;
49566;SDS011;35472;50.514;30.448;2023-12-29T05:00:19;13.85;;;8.25;;
49566;SDS011;35472;50.514;30.448;2023-12-29T05:02:45;10.70;;;8.07;;
49566;SDS011;35472;50.514;30.448;2023-12-29T05:05:10;14.20;;;8.13;;
49566;SDS011;35472;50.514;30.448;2023-12-29T05:07:36;14.20;;;7.38;;
49566;SDS011;35472;50.514;30.448;2023-12-29T05:10:01;11.43;;;8.40;;
49566;SDS011;35472;50.514;30.448;2023-12-29T05:12:27;13.63;;;8.02;;
49566;SDS011;35472;50.514;30.448;2023-12-29T05:14:52;13.70;;;8.38;;
49566;SDS011;35472;50.514;30.448;2023-12-29T05:17:17;12.45;;;8.70;;
49566;SDS011;35472;50.514;30.448;2023-12-29T05:19:43;13.77;;;9.30;;
49566;SDS011;35472;50.514;30.448;2023-12-29T05:22:08;12.23;;;8.48;;
49566;SDS011;35472;50.514;30.448;2023-12-29T05:24:36;12.18;;;7.80;;
49566;SDS011;35472;50.514;30.448;2023-12-29T05:27:01;10.90;;;7.60;;
49566;SDS011;35472;50.514;30.448;2023-12-29T05:29:26;11.70;;;6.85;;
49566;SDS011;35472;50.514;30.448;2023-12-29T05:31:52;9.73;;;6.97;;
49566;SDS011;35472;50.514;30.448;2023-12-29T05:34:17;15.40;;;8.15;;
49566;SDS011;35472;50.514;30.448;2023-12-29T05:36:43;13.60;;;8.45;;
49566;SDS011;35472;50.514;30.448;2023-12-29T05:39:08;11.05;;;7.93;;
49566;SDS011;35472;50.514;30.448;2023-12-29T05:41:33;10.90;;;7.85;;
49566;SDS011;35472;50.514;30.448;2023-12-29T05:43:59;13.48;;;8.52;;
49566;SDS011;35472;50.514;30.448;2023-12-29T05:46:28;10.20;;;7.43;;
49566;SDS011;35472;50.514;30.448;2023-12-29T05:48:54;14.70;;;8.82;;
49566;SDS011;35472;50.514;30.448;2023-12-29T05:51:19;14.27;;;9.48;;
49566;SDS011;35472;50.514;30.448;2023-12-29T05:53:45;13.27;;;8.15;;
49566;SDS011;35472;50.514;30.448;2023-12-29T05:56:11;14.88;;;8.45;;
49566;SDS011;35472;50.514;30.448;2023-12-29T05:58:38;13.27;;;8.02;;
49566;SDS011;35472;50.514;30.448;2023-12-29T06:01:05;17.02;;;8.23;;
49566;SDS011;35472;50.514;30.448;2023-12-29T06:03:30;13.75;;;8.20;;
49566;SDS011;35472;50.514;30.448;2023-12-29T06:05:56;12.65;;;8.88;;
49566;SDS011;35472;50.514;30.448;2023-12-29T06:08:21;11.13;;;7.35;;
49566;SDS011;35472;50.514;30.448;2023-12-29T06:10:47;15.38;;;10.15;;
49566;SDS011;35472;50.514;30.448;2023-12-29T06:13:14;11.55;;;7.95;;
49566;SDS011;35472;50.514;30.448;2023-12-29T06:15:40;12.65;;;8.30;;
49566;SDS011;35472;50.514;30.448;2023-12-29T06:18:05;14.43;;;7.20;;
49566;SDS011;35472;50.514;30.448;2023-12-29T06:20:31;15.80;;;9.45;;
49566;SDS011;35472;50.514;30.448;2023-12-29T06:22:56;15.68;;;10.05;;
49566;SDS011;35472;50.514;30.448;2023-12-29T06:25:23;15.65;;;9.43;;
49566;SDS011;35472;50.514;30.448;2023-12-29T06:27:49;14.90;;;8.95;;
49566;SDS011;35472;50.514;30.448;2023-12-29T06:30:14;11.63;;;8.00;;
49566;SDS011;35472;50.514;30.448;2023-12-29T06:32:40;14.82;;;9.32;;
49566;SDS011;35472;50.514;30.448;2023-12-29T06:35:06;13.35;;;8.60;;
49566;SDS011;35472;50.514;30.448;2023-12-29T06:37:33;13.85;;;9.00;;
49566;SDS011;35472;50.514;30.448;2023-12-29T06:39:58;11.88;;;8.20;;
49566;SDS011;35472;50.514;30.448;2023-12-29T06:42:26;12.82;;;9.38;;
49566;SDS011;35472;50.514;30.448;2023-12-29T06:44:52;13.75;;;9.50;;
49566;SDS011;35472;50.514;30.448;2023-12-29T06:47:17;13.45;;;9.50;;
49566;SDS011;35472;50.514;30.448;2023-12-29T06:49:42;14.30;;;10.98;;
49566;SDS011;35472;50.514;30.448;2023-12-29T06:52:08;15.73;;;8.65;;
49566;SDS011;35472;50.514;30.448;2023-12-29T06:54:33;17.52;;;9.32;;
49566;SDS011;35472;50.514;30.448;2023-12-29T06:56:59;16.33;;;9.50;;
49566;SDS011;35472;50.514;30.448;2023-12-29T06:59:24;10.65;;;7.88;;
49566;SDS011;35472;50.514;30.448;2023-12-29T07:01:50;12.45;;;8.15;;
49566;SDS011;35472;50.514;30.448;2023-12-29T07:04:16;11.10;;;8.23;;
49566;SDS011;35472;50.514;30.448;2023-12-29T07:06:41;12.05;;;8.43;;
49566;SDS011;35472;50.514;30.448;2023-12-29T07:09:07;15.70;;;9.43;;
49566;SDS011;35472;50.514;30.448;2023-12-29T07:11:34;13.35;;;8.38;;
49566;SDS011;35472;50.514;30.448;2023-12-29T07:13:59;12.82;;;8.50;;
49566;SDS011;35472;50.514;30.448;2023-12-29T07:16:27;14.15;;;9.15;;
49566;SDS011;35472;50.514;30.448;2023-12-29T07:18:52;12.68;;;8.38;;
49566;SDS011;35472;50.514;30.448;2023-12-29T07:21:18;13.40;;;8.65;;
49566;SDS011;35472;50.514;30.448;2023-12-29T07:23:45;12.85;;;8.65;;
49566;SDS011;35472;50.514;30.448;2023-12-29T07:26:11;11.35;;;7.70;;
49566;SDS011;35472;50.514;30.448;2023-12-29T07:28:36;12.25;;;8.00;;
49566;SDS011;35472;50.514;30.448;2023-12-29T07:31:02;10.90;;;8.13;;
49566;SDS011;35472;50.514;30.448;2023-12-29T07:33:27;16.38;;;9.25;;
49566;SDS011;35472;50.514;30.448;2023-12-29T07:35:53;13.23;;;8.20;;
49566;SDS011;35472;50.514;30.448;2023-12-29T07:38:19;10.65;;;8.23;;
49566;SDS011;35472;50.514;30.448;2023-12-29T07:40:46;14.27;;;7.90;;
49566;SDS011;35472;50.514;30.448;2023-12-29T07:43:13;12.35;;;7.85;;
49566;SDS011;35472;50.514;30.448;2023-12-29T07:45:39;15.85;;;8.73;;
49566;SDS011;35472;50.514;30.448;2023-12-29T07:48:04;11.73;;;7.88;;
49566;SDS011;35472;50.514;30.448;2023-12-29T07:50:30;10.63;;;7.80;;
49566;SDS011;35472;50.514;30.448;2023-12-29T07:52:59;14.93;;;9.13;;
49566;SDS011;35472;50.514;30.448;2023-12-29T07:55:28;14.38;;;8.55;;
49566;SDS011;35472;50.514;30.448;2023-12-29T07:57:54;13.45;;;8.90;;
49566;SDS011;35472;50.514;30.448;2023-12-29T08:00:19;12.13;;;8.02;;
49566;SDS011;35472;50.514;30.448;2023-12-29T08:02:45;14.15;;;8.80;;
49566;SDS011;35472;50.514;30.448;2023-12-29T08:05:10;16.23;;;8.73;;
49566;SDS011;35472;50.514;30.448;2023-12-29T08:07:36;11.68;;;9.18;;
49566;SDS011;35472;50.514;30.448;2023-12-29T08:10:06;14.55;;;8.85;;
49566;SDS011;35472;50.514;30.448;2023-12-29T08:12:32;15.13;;;8.45;;
49566;SDS011;35472;50.514;30.448;2023-12-29T08:14:59;17.25;;;8.38;;
49566;SDS011;35472;50.514;30.448;2023-12-29T08:17:24;10.90;;;7.68;;
49566;SDS011;35472;50.514;30.448;2023-12-29T08:19:50;10.35;;;7.57;;
49566;SDS011;35472;50.514;30.448;2023-12-29T08:22:15;11.35;;;7.90;;
49566;SDS011;35472;50.514;30.448;2023-12-29T08:24:41;10.98;;;7.53;;
49566;SDS011;35472;50.514;30.448;2023-12-29T08:27:09;10.75;;;7.32;;
49566;SDS011;35472;50.514;30.448;2023-12-29T08:29:35;10.82;;;7.90;;
49566;SDS011;35472;50.514;30.448;2023-12-29T08:32:01;10.65;;;7.97;;
49566;SDS011;35472;50.514;30.448;2023-12-29T08:34:27;11.82;;;7.15;;
49566;SDS011;35472;50.514;30.448;2023-12-29T08:36:52;9.73;;;7.38;;
49566;SDS011;35472;50.514;30.448;2023-12-29T08:39:18;8.10;;;6.82;;
49566;SDS011;35472;50.514;30.448;2023-12-29T08:41:44;11.20;;;7.65;;
49566;SDS011;35472;50.514;30.448;2023-12-29T08:44:09;9.40;;;7.22;;
49566;SDS011;35472;50.514;30.448;2023-12-29T08:46:34;9.48;;;6.25;;
49566;SDS011;35472;50.514;30.448;2023-12-29T08:49:00;8.68;;;6.20;;
49566;SDS011;35472;50.514;30.448;2023-12-29T08:51:28;13.73;;;7.50;;
49566;SDS011;35472;50.514;30.448;2023-12-29T08:53:53;10.70;;;7.72;;
49566;SDS011;35472;50.514;30.448;2023-12-29T08:56:19;10.20;;;7.50;;
49566;SDS011;35472;50.514;30.448;2023-12-29T08:58:45;11.18;;;7.63;;
49566;SDS011;35472;50.514;30.448;2023-12-29T09:01:10;12.00;;;7.38;;
49566;SDS011;35472;50.514;30.448;2023-12-29T09:03:35;10.63;;;7.53;;
49566;SDS011;35472;50.514;30.448;2023-12-29T09:06:01;14.65;;;8.00;;
49566;SDS011;35472;50.514;30.448;2023-12-29T09:08:28;10.93;;;7.00;;
49566;SDS011;35472;50.514;30.448;2023-12-29T09:10:55;10.45;;;7.10;;
49566;SDS011;35472;50.514;30.448;2023-12-29T09:13:20;9.63;;;7.18;;
49566;SDS011;35472;50.514;30.448;2023-12-29T09:15:48;9.23;;;6.72;;
49566;SDS011;35472;50.514;30.448;2023-12-29T09:18:14;8.68;;;6.13;;
49566;SDS011;35472;50.514;30.448;2023-12-29T09:20:40;7.57;;;6.13;;
49566;SDS011;35472;50.514;30.448;2023-12-29T09:23:05;9.52;;;6.18;;
49566;SDS011;35472;50.514;30.448;2023-12-29T09:25:31;8.48;;;5.95;;
49566;SDS011;35472;50.514;30.448;2023-12-29T09:27:56;9.77;;;5.75;;
49566;SDS011;35472;50.514;30.448;2023-12-29T09:30:24;8.65;;;6.50;;
49566;SDS011;35472;50.514;30.448;2023-12-29T09:32:49;10.13;;;7.03;;
49566;SDS011;35472;50.514;30.448;2023-12-29T09:35:14;7.03;;;5.45;;
49566;SDS011;35472;50.514;30.448;2023-12-29T09:37:41;7.78;;;6.28;;
49566;SDS011;35472;50.514;30.448;2023-12-29T09:40:06;9.27;;;6.60;;
49566;SDS011;35472;50.514;30.448;2023-12-29T09:42:32;9.65;;;5.65;;
49566;SDS011;35472;50.514;30.448;2023-12-29T09:45:00;8.80;;;5.97;;
49566;SDS011;35472;50.514;30.448;2023-12-29T09:47:28;7.15;;;5.57;;
49566;SDS011;35472;50.514;30.448;2023-12-29T09:49:55;10.88;;;6.60;;
49566;SDS011;35472;50.514;30.448;2023-12-29T09:52:21;10.13;;;6.78;;
49566;SDS011;35472;50.514;30.448;2023-12-29T09:54:52;8.35;;;5.53;;
49566;SDS011;35472;50.514;30.448;2023-12-29T09:57:20;9.13;;;5.82;;
49566;SDS011;35472;50.514;30.448;2023-12-29T09:59:46;14.43;;;6.25;;
49566;SDS011;35472;50.514;30.448;2023-12-29T10:02:18;9.45;;;5.93;;
49566;SDS011;35472;50.514;30.448;2023-12-29T10:04:45;9.60;;;6.05;;
49566;SDS011;35472;50.514;30.448;2023-12-29T10:07:13;11.40;;;5.72;;
49566;SDS011;35472;50.514;30.448;2023-12-29T10:09:45;7.60;;;5.63;;
49566;SDS011;35472;50.514;30.448;2023-12-29T10:12:12;8.80;;;6.57;;
49566;SDS011;35472;50.514;30.448;2023-12-29T10:20:03;8.93;;;5.43;;
49566;SDS011;35472;50.514;30.448;2023-12-29T10:25:38;7.78;;;6.22;;
49566;SDS011;35472;50.514;30.448;2023-12-29T10:28:05;12.55;;;7.10;;
49566;SDS011;35472;50.514;30.448;2023-12-29T10:30:31;8.77;;;6.05;;
49566;SDS011;35472;50.514;30.448;2023-12-29T10:32:56;8.07;;;6.32;;
49566;SDS011;35472;50.514;30.448;2023-12-29T10:35:23;10.20;;;5.82;;
49566;SDS011;35472;50.514;30.448;2023-12-29T10:37:49;10.13;;;6.18;;
49566;SDS011;35472;50.514;30.448;2023-12-29T10:40:18;11.02;;;5.50;;
49566;SDS011;35472;50.514;30.448;2023-12-29T10:42:54;7.57;;;5.78;;
49566;SDS011;35472;50.514;30.448;2023-12-29T10:45:20;9.70;;;5.38;;
49566;SDS011;35472;50.514;30.448;2023-12-29T10:47:47;8.20;;;5.63;;
49566;SDS011;35472;50.514;30.448;2023-12-29T10:50:15;14.07;;;6.78;;
49566;SDS011;35472;50.514;30.448;2023-12-29T10:52:41;9.18;;;6.13;;
49566;SDS011;35472;50.514;30.448;2023-12-29T10:55:10;9.85;;;6.55;;
49566;SDS011;35472;50.514;30.448;2023-12-29T10:57:36;23.73;;;7.05;;
49566;SDS011;35472;50.514;30.448;2023-12-29T11:00:04;12.80;;;6.75;;
49566;SDS011;35472;50.514;30.448;2023-12-29T11:02:32;20.98;;;8.43;;
49566;SDS011;35472;50.514;30.448;2023-12-29T11:05:05;9.00;;;6.05;;
49566;SDS011;35472;50.514;30.448;2023-12-29T11:07:36;11.35;;;6.50;;
49566;SDS011;35472;50.514;30.448;2023-12-29T11:10:03;7.15;;;6.28;;
49566;SDS011;35472;50.514;30.448;2023-12-29T11:12:33;10.00;;;6.22;;
49566;SDS011;35472;50.514;30.448;2023-12-29T11:15:00;10.73;;;6.65;;
49566;SDS011;35472;50.514;30.448;2023-12-29T11:17:27;9.35;;;6.72;;
49566;SDS011;35472;50.514;30.448;2023-12-29T11:19:54;8.27;;;6.00;;
49566;SDS011;35472;50.514;30.448;2023-12-29T11:22:20;11.73;;;6.57;;
49566;SDS011;35472;50.514;30.448;2023-12-29T11:24:47;10.25;;;5.88;;
49566;SDS011;35472;50.514;30.448;2023-12-29T11:27:13;12.15;;;6.72;;
49566;SDS011;35472;50.514;30.448;2023-12-29T11:29:38;12.88;;;7.47;;
49566;SDS011;35472;50.514;30.448;2023-12-29T11:32:06;10.40;;;6.75;;
49566;SDS011;35472;50.514;30.448;2023-12-29T11:34:51;6.25;;;5.35;;
49566;SDS011;35472;50.514;30.448;2023-12-29T11:42:47;9.00;;;6.47;;
49566;SDS011;35472;50.514;30.448;2023-12-29T11:45:30;10.30;;;7.43;;
49566;SDS011;35472;50.514;30.448;2023-12-29T11:48:01;11.48;;;7.13;;
49566;SDS011;35472;50.514;30.448;2023-12-29T11:50:30;11.88;;;6.90;;
49566;SDS011;35472;50.514;30.448;2023-12-29T11:52:57;11.68;;;7.50;;
49566;SDS011;35472;50.514;30.448;2023-12-29T11:55:28;11.48;;;6.78;;
49566;SDS011;35472;50.514;30.448;2023-12-29T11:57:58;14.80;;;8.07;;
49566;SDS011;35472;50.514;30.448;2023-12-29T12:00:40;13.25;;;7.82;;
49566;SDS011;35472;50.514;30.448;2023-12-29T12:03:17;10.98;;;6.78;;
49566;SDS011;35472;50.514;30.448;2023-12-29T12:05:44;10.10;;;7.10;;
49566;SDS011;35472;50.514;30.448;2023-12-29T12:08:12;10.05;;;8.05;;
49566;SDS011;35472;50.514;30.448;2023-12-29T12:10:51;14.10;;;7.95;;
49566;SDS011;35472;50.514;30.448;2023-12-29T12:19:10;12.60;;;9.07;;
49566;SDS011;35472;50.514;30.448;2023-12-29T12:21:36;10.48;;;7.70;;
49566;SDS011;35472;50.514;30.448;2023-12-29T12:24:06;12.95;;;7.85;;
49566;SDS011;35472;50.514;30.448;2023-12-29T12:26:32;13.05;;;8.02;;
49566;SDS011;35472;50.514;30.448;2023-12-29T12:28:58;14.10;;;7.90;;
49566;SDS011;35472;50.514;30.448;2023-12-29T12:31:24;13.20;;;9.27;;
49566;SDS011;35472;50.514;30.448;2023-12-29T12:33:55;12.05;;;8.85;;
49566;SDS011;35472;50.514;30.448;2023-12-29T12:36:22;12.85;;;8.10;;
49566;SDS011;35472;50.514;30.448;2023-12-29T12:38:52;13.15;;;7.90;;
49566;SDS011;35472;50.514;30.448;2023-12-29T12:41:18;11.07;;;9.10;;
49566;SDS011;35472;50.514;30.448;2023-12-29T12:43:50;14.82;;;8.68;;
49566;SDS011;35472;50.514;30.448;2023-12-29T12:46:19;10.45;;;7.53;;
49566;SDS011;35472;50.514;30.448;2023-12-29T12:48:49;11.05;;;7.60;;
49566;SDS011;35472;50.514;30.448;2023-12-29T12:51:15;11.00;;;7.03;;
49566;SDS011;35472;50.514;30.448;2023-12-29T12:53:44;14.73;;;8.20;;
49566;SDS011;35472;50.514;30.448;2023-12-29T12:56:10;10.68;;;7.25;;
49566;SDS011;35472;50.514;30.448;2023-12-29T12:58:36;9.48;;;8.20;;
49566;SDS011;35472;50.514;30.448;2023-12-29T13:01:02;10.38;;;7.70;;
49566;SDS011;35472;50.514;30.448;2023-12-29T13:03:28;13.73;;;8.82;;
49566;SDS011;35472;50.514;30.448;2023-12-29T13:05:55;11.77;;;7.43;;
49566;SDS011;35472;50.514;30.448;2023-12-29T13:08:22;11.88;;;7.97;;
49566;SDS011;35472;50.514;30.448;2023-12-29T13:10:51;16.67;;;9.32;;
49566;SDS011;35472;50.514;30.448;2023-12-29T13:13:17;15.23;;;9.18;;
49566;SDS011;35472;50.514;30.448;2023-12-29T13:15:50;15.00;;;8.52;;
49566;SDS011;35472;50.514;30.448;2023-12-29T13:18:17;12.07;;;8.73;;
49566;SDS011;35472;50.514;30.448;2023-12-29T13:20:46;15.90;;;9.10;;
49566;SDS011;35472;50.514;30.448;2023-12-29T13:23:12;14.48;;;8.52;;
49566;SDS011;35472;50.514;30.448;2023-12-29T13:25:39;10.65;;;8.30;;
49566;SDS011;35472;50.514;30.448;2023-12-29T13:28:06;14.93;;;8.23;;
49566;SDS011;35472;50.514;30.448;2023-12-29T13:30:31;12.55;;;8.25;;
49566;SDS011;35472;50.514;30.448;2023-12-29T13:32:57;11.02;;;8.75;;
49566;SDS011;35472;50.514;30.448;2023-12-29T13:40:53;10.10;;;7.55;;
49566;SDS011;35472;50.514;30.448;2023-12-29T13:43:24;9.65;;;7.90;;
49566;SDS011;35472;50.514;30.448;2023-12-29T13:45:52;9.18;;;6.60;;
49566;SDS011;35472;50.514;30.448;2023-12-29T13:48:17;10.50;;;7.15;;
49566;SDS011;35472;50.514;30.448;2023-12-29T13:50:46;13.93;;;7.22;;
49566;SDS011;35472;50.514;30.448;2023-12-29T13:53:18;13.73;;;8.52;;
49566;SDS011;35472;50.514;30.448;2023-12-29T13:55:44;9.27;;;6.88;;
49566;SDS011;35472;50.514;30.448;2023-12-29T13:58:10;11.30;;;7.50;;
49566;SDS011;35472;50.514;30.448;2023-12-29T14:00:37;9.13;;;7.20;;
49566;SDS011;35472;50.514;30.448;2023-12-29T14:03:14;12.43;;;7.80;;
49566;SDS011;35472;50.514;30.448;2023-12-29T14:05:52;11.13;;;7.40;;
49566;SDS011;35472;50.514;30.448;2023-12-29T14:08:31;9.05;;;7.28;;
49566;SDS011;35472;50.514;30.448;2023-12-29T14:10:59;12.18;;;7.47;;
49566;SDS011;35472;50.514;30.448;2023-12-29T14:13:25;12.88;;;7.93;;
49566;SDS011;35472;50.514;30.448;2023-12-29T14:15:52;12.00;;;9.13;;
49566;SDS011;35472;50.514;30.448;2023-12-29T14:20:58;13.20;;;7.78;;
49566;SDS011;35472;50.514;30.448;2023-12-29T14:23:24;13.77;;;8.82;;
49566;SDS011;35472;50.514;30.448;2023-12-29T14:25:50;11.07;;;8.25;;
49566;SDS011;35472;50.514;30.448;2023-12-29T14:28:16;15.80;;;9.50;;
49566;SDS011;35472;50.514;30.448;2023-12-29T14:30:43;16.33;;;9.63;;
49566;SDS011;35472;50.514;30.448;2023-12-29T14:33:10;11.80;;;7.97;;
49566;SDS011;35472;50.514;30.448;2023-12-29T14:35:38;16.10;;;9.05;;
49566;SDS011;35472;50.514;30.448;2023-12-29T14:38:04;13.68;;;9.45;;
49566;SDS011;35472;50.514;30.448;2023-12-29T14:40:31;13.43;;;9.85;;
49566;SDS011;35472;50.514;30.448;2023-12-29T14:43:00;16.60;;;10.15;;
49566;SDS011;35472;50.514;30.448;2023-12-29T14:45:26;15.02;;;9.48;;
49566;SDS011;35472;50.514;30.448;2023-12-29T14:47:54;13.80;;;8.88;;
49566;SDS011;35472;50.514;30.448;2023-12-29T14:50:20;16.75;;;9.00;;
49566;SDS011;35472;50.514;30.448;2023-12-29T14:52:45;12.63;;;8.82;;